WSLO2: Wister Lake

Data processed at Fri Mar 09 2018 23:40


All information presented herein is the property of the government of the United States of America and may be revised or deleted at any time without prior notice.
Dissemination of this information without the expressed written consent of the Public Affairs Office, Tulsa District U.S. Army Corps of Engineers is strictly prohibited.
These data are gathered electronically and, as presented, have not undergone any form of quality control. These data are not guaranteed to be valid or correct.
Go to home page.
Go to station list.

Upstream stations:

Downstream station:
Previous Day
Next Day
Current Day
    
SHEF ID:       WSLO2     Wister Lake
STATION TYPE:  RESERVOIR
Normal Pool:  Bottom =   450.00, Top =   478.00

               PRECIP ELEVATION   STORAGE   TW-ELEV    INFLOW   RELEASE  AIR-TEMP  WIND-DIRWIND-SPEED REL-HUMID SOLAR-RAD   VOLTAGE  BAT-LOAD
                   in        ft     ac-ft        ft       cfs       cfs         F       deg       mph         %      W/m2      volt      volt
              Ccp-Rev   Ccp-Rev   Ccp-Rev   Ccp-Rev  Regi-Rev  Regi-Rev   Ccp-Rev   Ccp-Rev   Ccp-Rev   Ccp-Rev   Ccp-Rev   Ccp-Rev   Ccp-Rev
(US/Central)
03/07 00:00      0.00    499.41    333023      8.03       186      7002     38.59    329.40     10.14     44.88      2.00     13.92     13.65
03/07 01:00      0.00    499.37    332213      8.03       197      7000     36.93    327.40      7.91     49.27      2.00     13.92     13.65
03/07 02:00      0.00    499.34    331605      8.03       207      6997     35.38    334.40      7.54     52.87      2.00     13.91     13.65
03/07 03:00      0.00    499.32    331200      8.02       299      6995     34.52    331.30      6.89     57.15      2.00     13.92     13.65
03/07 04:00      0.00    499.29    330593      8.02       297      6994     33.64    327.90      6.78     58.92      1.00     13.92     13.65
03/07 05:00      0.00    499.26    329985      8.02       213      6991     32.63    309.20      5.70     61.72      2.00     13.92     13.65
03/07 06:00      0.00    499.23    329378      8.01       211      6989     31.64    328.80      4.71     63.19      2.00     13.92     13.65
03/07 07:00      0.00    499.21    328973      8.00       617      6987     31.98    324.50      6.48     66.06      4.00     13.91     13.65
03/07 08:00      0.00    499.18    328366      8.00       615      6985     32.86    320.10      6.32     63.19    132.00     13.91     13.65
03/07 09:00      0.00    499.16    327961      8.00       543      6983     35.40    326.10      5.43     56.97    361.00     13.91     13.65
03/07 10:00      0.00    499.13    327353      7.99       536      6982     37.36    331.40      6.76     51.95    607.00     13.92     13.65
03/07 11:00      0.00    499.11    326948      8.00       529      6980     39.34    309.60      5.59     49.70    736.00     13.92     13.65
03/07 12:00      0.00    499.08    326341      7.99       112      6978     41.54    308.40      6.48     45.30    851.00     13.92     13.65
03/07 13:00      0.00    499.02    325126      7.99        23      6974     43.97    311.70      6.78     41.76    879.00     13.92     13.65
03/07 14:00      0.00    498.99    324525      7.99         4      6971     45.61    309.00      6.74     39.32    866.00     13.92     13.36
03/07 15:00      0.00    498.99    324525      7.99         2      6970     46.94    317.60      8.19     35.23    766.00     13.92     13.53
03/07 16:00      0.00    498.96    323938      7.99         0      6969     47.70    312.90      7.67     34.50    606.00     13.92     13.53
03/07 17:00      0.00    498.93    323350      7.98         0      6966     47.80    319.20      8.27     32.91    400.00     13.92     13.65
03/07 18:00      0.00    498.90    322763      7.97         0      6964     47.14    302.80      6.74     34.07    174.00     13.92     13.65
03/07 19:00      0.00    498.87    322176      7.98         0      6936     45.61    298.50      4.40     40.60      7.00     13.92     13.65
03/07 20:00      0.00    498.84    321588      8.01       384      6933     42.21    323.00      1.10     52.81      2.00     13.92     13.65
03/07 21:00      0.00    498.81    321001      7.98       384      6957     36.93     65.50      0.34     60.38      1.00     13.92     13.65
03/07 22:00      0.00    498.79    320609      7.97       384      6956     34.72     77.80      0.29     70.27      1.00     13.92     13.65
03/07 23:00      0.00    498.77    320218      7.98       731      6954     33.62     74.00      0.41     79.49      1.00     13.92     13.65